首页
METAR-TAF:

METAR-TAF

机场 :

杰克逊, 怀俄明州, 美国

纬度: 43-36N, 经度: 110-44W, 海拔: 1964米

当前天气观测

该预报发布于56分钟前的01:56 UTC
风速8节,风向南转西南
温度 19°C
湿度 30%
气压 1017 hPa
能見度: 16.1公里
天空无云

METAR: KJAC 270156Z 21008KT 10SM CLR 19/01 A3004 RMK AO2 SLP123 T01940006

时间: 20:52 (02:52 UTC)

预报

该预报发布于3小时和23分钟前的23:29 UTC
预报有效从27日的 00点(UTC)到 27日的 24点(UTC)
风速13节,风向南转西南,有时为20节阵风
能見度: 10公里
散云层高于9000英尺
多云层高于12000英尺
从 27日的 0100点(UTC)
风速7节,风向西转西南
能見度: 10公里
少量云层高于10000英尺
散云层高于15000英尺
从 27日的 0400点(UTC)
风速6节,风向多变
能見度: 10公里
少量云层高于10000英尺
从 27日的 1200点(UTC)
风速7节,风向
能見度: 10公里
散云层高于12000英尺
从 27日的 1600点(UTC)
风速9节,风向
能見度: 10公里
少量云层高于8000英尺
散云层高于12000英尺
从 27日的 1900点(UTC)
风速15节,风向西南,有时为25节阵风
能見度: 10公里
少量云层高于7000英尺
散云层高于10000英尺

TAF: KJAC 262329Z 2700/2724 20013G20KT P6SM SCT090 BKN120 FM270100 24007KT P6SM FEW100 SCT150 FM270400 VRB06KT P6SM FEW100 FM271200 17007KT P6SM SCT120 FM271600 19009KT P6SM FEW080 SCT120 FM271900 22015G25KT P6SM FEW070 SCT100 AMD LTD TO CLD VIS AND WIND

超过4000个机场的气象观测和天气预报(METAR&TAF报告)。

可查询的气象台以黄色和红色小点在地图上表示。

将鼠标移到小点上方,可查看气象台名称。

然后点击查看天气观测和预报。

如需切换地图:点击带黑十字的绿色按钮放大地图;点击带横线的绿色按钮缩小地图;或者点击绿色箭头查看邻近地区的地图。


METAR-TAF: